Weather observations for the past three days for
Andrews-Murphy Airport
Metric (Imperial)
Date Time (edt) Wind (kph) Vis. (km) Weather Sky Cond. Temperature (ºC) Relative Humidity Wind Chill (°C) Heat Index (°C) Pressure Precipitation (cm)
Air Dwpt 6 hour altimeter (cm) sea level (mb) 1 hr 3 hr 6 hr
Max. Min.
03 03:35 Calm 11.27 Fair CLR 19.8 19.1 96% 76.56 0.0
03 03:15 Calm 16.09 Fair CLR 20.1 19.4 96% 76.56 0.0
03 02:55 Calm 16.09 Fair CLR 20.2 19.5 96% 76.56 0.0
03 02:35 Calm 16.09 Fair CLR 20.3 19.6 96% 76.56 0.0
03 02:15 Calm 11.27 Fair CLR 20.5 19.8 96% 76.56 0.0
03 01:55 Calm 16.09 Fair CLR 20.6 19.9 27.4 20.5 96% 76.56 0.0
03 01:35 Calm 16.09 Fair CLR 20.7 19.9 95% 76.56 0.0
03 01:15 Calm 16.09 Fair CLR 20.8 20 95% 76.58 0.0
03 00:55 Calm 16.09 Fair CLR 21 20.1 95% 76.58 0.0
03 00:35 Calm 16.09 Fair CLR 21.3 20.3 94% 76.56 0.0
03 00:15 Calm 16.09 Fair CLR 21.5 20.4 93% 76.58 0.0
02 23:55 Calm 16.09 Fair CLR 21.6 20.3 92% 76.58 0.0
02 23:35 Calm 16.09 Fair CLR 22 20.7 92% 76.58 0.0
02 23:15 Calm 16.09 Fair CLR 22.2 20.9 92% 76.61 0.0
02 22:55 Calm 16.09 Fair CLR 22.6 21 91% 76.61 0.0
02 22:35 Calm 16.09 Fair CLR 22.6 21 91% 76.58 0.0
02 22:15 Calm 16.09 Fair CLR 23 21.3 90% 76.58 0.0
02 21:55 Calm 16.09 Fair CLR 23.2 21.3 89% 76.58 0.0
02 21:35 Calm 16.09 Fair CLR 23.6 21.6 89% 76.58 0.0
02 21:15 Calm 16.09 Fair CLR 24 21.6 87% 24 76.56 0.0
02 20:55 Calm 16.09 Fair CLR 24.9 22 84% 26 76.53 0.0
02 20:35 Calm 16.09 Fair CLR 25.7 21.9 80% 27 76.5 0.0
02 20:15 Calm 16.09 Partly Cloudy SCT060 26.8 22 75% 29 76.5 0.0
02 19:55 Calm 16.09 Partly Cloudy SCT060 27.2 23 33.5 27.2 78% 30 76.5 0.0
02 19:35 Calm 16.09 Partly Cloudy SCT060 28.6 22.6 70% 32 76.48 0.0
02 19:15 Calm 16.09 Mostly Cloudy BKN060 29.9 22.2 63% 33 76.48 0.0
02 18:55 Calm 16.09 Partly Cloudy SCT060 30.9 21.3 57% 34 76.48 0.0
02 18:35 NW 6 16.09 Partly Cloudy SCT060 31.6 21.4 55% 35 76.48 0.0
02 18:15 NW 6 16.09 Mostly Cloudy SCT060 BKN070 32.2 20.9 51% 35 76.48 0.0
02 17:55 Calm 16.09 Partly Cloudy SCT060 32.8 20.1 47% 35 76.5 0.0
02 17:35 W 6 16.09 Fair CLR 32.9 20.1 47% 35 76.5 0.0
02 17:15 Calm 16.09 Fair CLR 32.9 19.3 45% 35 76.5 0.0
02 16:55 Calm 16.09 Fair CLR 31.9 19.7 48% 34 76.5 0.0
02 16:35 NE 6 16.09 Fair CLR 33.2 20 46% 36 76.5 0.0
02 16:15 Calm 16.09 Fair CLR 33.4 18.7 42% 35 76.5 0.0
02 15:55 Calm 16.09 Fair CLR 33.4 19.2 43% 35 76.53 0.0
02 15:35 SW 9 16.09 Fair CLR 33.2 19.5 44% 35 76.53 0.0
02 15:15 Calm 16.09 Fair CLR 32.6 19.5 46% 34 76.56 0.0
02 14:55 SW 7 16.09 Fair CLR 32.7 20.1 47% 35 76.58 0.0
02 14:35 S 6 16.09 Fair CLR 32.5 20.5 49% 35 76.58 0.0
02 14:16 W 7 16.09 Partly Cloudy SCT048 SCT065 31.8 20.4 51% 34 76.61 0.0
02 13:55 W 6 16.09 Partly Cloudy SCT050 SCT065 32.1 20.2 32.4 19 49% 34 76.61 0.0
02 13:35 SW 6 16.09 Fair CLR 31.9 19.7 48% 34 76.63 0.0
02 13:15 Calm 16.09 Fair CLR 31.7 19.8 49% 34 76.66 0.0
02 12:55 SW 6 16.09 Fair CLR 31.3 19.8 50% 33 76.68 0.0
02 12:35 W 6 16.09 Fair CLR 31.1 20.3 53% 33 76.68 0.0
02 12:15 S 6 16.09 Fair CLR 30.8 21.2 57% 34 76.71 0.0
02 11:55 Calm 16.09 Fair CLR 30 20.3 56% 32 76.71 0.0
02 11:35 SW 6 16.09 Fair CLR 29.8 20.2 56% 32 76.71 0.0
02 11:15 Calm 16.09 Fair CLR 28.8 21.3 64% 31 76.71 0.0
02 10:55 Calm 16.09 Fair CLR 28.2 21.2 66% 30 76.71 0.0
02 10:35 Calm 16.09 Fair CLR 27 20.2 66% 29 76.71 0.0
02 10:15 Calm 16.09 Fair CLR 26.3 20.1 69% 28 76.71 0.0
02 09:55 Calm 16.09 Fair CLR 24.7 20.1 76% 26 76.73 0.0
02 09:35 Calm 16.09 Fair CLR 23.2 20.5 85% 76.73 0.0
02 09:15 Calm 16.09 Fair CLR 21.6 20.2 92% 76.73 0.0
02 08:55 Calm 16.09 Fair CLR 20.9 20.1 95% 76.76 0.0
02 08:35 Calm 16.09 Fair CLR 20.4 19.7 96% 76.76 0.0
02 08:15 Calm 16.09 Fair CLR 19.6 18.8 95% 76.73 0.0
02 07:55 Calm 8.05 Fog/Mist CLR 19 18.2 19.6 18 95% 76.71 0.0
02 07:35 Calm 8.05 Fog/Mist CLR 18.1 17.5 96% 76.71 0.0
02 07:15 Calm 8.05 Fog/Mist CLR 18.1 17.3 95% 76.68 0.0
02 06:55 Calm 11.27 Fair CLR 18 17.2 95% 76.68 0.0
02 06:35 Calm 8.05 Fog/Mist CLR 18.2 17.5 96% 76.68 0.0
02 06:15 Calm 8.05 Fog/Mist CLR 18.4 17.7 96% 76.66 0.0
02 05:55 Calm 8.05 Fog/Mist CLR 18.3 17.6 96% 76.66 0.0
02 05:35 Calm 6.44 Fog/Mist CLR 18.2 17.5 96% 76.66 0.0
02 05:15 Calm 11.27 Fair CLR 18.5 17.7 95% 76.63 0.0
02 04:55 Calm 8.05 Fog/Mist CLR 18.6 18 96% 76.63 0.0
02 04:35 Calm 11.27 Fair CLR 19 18.3 96% 76.61 0.0
02 04:15 Calm 11.27 Fair CLR 18.6 18 96% 76.61 0.0
02 03:55 Calm 11.27 Fair CLR 19 18.3 96% 76.63 0.0
02 03:35 Calm 2.82 Fog/Mist VV007 19.2 18.5 96% 76.63 0.0
02 03:15 Calm 4.83 Fog/Mist CLR 19.2 18.5 96% 76.63 0.0
02 02:55 Calm 11.27 Fair CLR 19.5 18.7 95% 76.63 0.0
02 02:35 Calm 16.09 Fair CLR 19.5 18.7 95% 76.63 0.0
02 02:15 Calm 16.09 Fair CLR 19.6 18.8 95% 76.63 0.0
02 01:55 Calm 16.09 Fair CLR 19.6 18.8 25.1 19.6 95% 76.63 0.0
02 01:35 Calm 16.09 Fair CLR 19.8 19 95% 76.63 0.0
02 01:15 Calm 11.27 Fair CLR 20.1 19.2 95% 76.63 0.0
02 00:55 Calm 16.09 Fair CLR 20.2 19.1 93% 76.63 0.0
02 00:35 Calm 16.09 Fair CLR 20.5 19.5 94% 76.63 0.0
02 00:15 Calm 16.09 Fair CLR 20.5 19.4 93% 76.63 0.0
01 23:55 Calm 16.09 Fair CLR 20.9 19.5 92% 76.63 0.0
01 23:35 Calm 16.09 Fair CLR 21 19.7 92% 76.63 0.0
01 23:15 Calm 16.09 Fair CLR 21.2 19.8 92% 76.63 0.0
01 22:55 Calm 16.09 Fair CLR 21.5 19.8 90% 76.63 0.0
01 22:35 Calm 16.09 Fair CLR 22 20.1 89% 76.63 0.0
01 22:15 Calm 16.09 Fair CLR 22.1 20.5 91% 76.63 0.0
01 21:55 Calm 16.09 Fair CLR 22.1 20.1 88% 76.61 0.0
01 21:35 Calm 16.09 Fair CLR 22.6 20.4 87% 76.61 0.0
01 21:15 Calm 16.09 Fair CLR 22.6 20.5 88% 76.58 0.0
01 20:55 Calm 16.09 Fair CLR 23.2 20.9 87% 76.58 0.0
01 20:35 Calm 16.09 Fair CLR 24 21.1 84% 24 76.56 0.0
01 20:15 Calm 16.09 Fair CLR 24.5 21.1 81% 25 76.56 0.0
01 19:55 Calm 16.09 Fair CLR 25.4 21.2 32.1 25.4 78% 27 76.56 0.0
01 19:35 Calm 16.09 Fair CLR 27 21.6 72% 29 76.56 0.0
01 19:15 Calm 16.09 Fair CLR 28.3 21 65% 30 76.56 0.0
01 18:55 Calm 16.09 Fair CLR 29.6 20.8 59% 32 76.56 0.0
01 18:35 Calm 16.09 Fair CLR 30.4 20.8 57% 33 76.56 0.0
01 18:15 N 6 16.09 Fair CLR 30.9 19.4 50% 33 76.53 0.0
01 17:55 N 6 16.09 Fair CLR 31.4 19.8 50% 33 76.53 0.0
01 17:35 NW 7 16.09 Fair CLR 31.5 19.3 48% 33 76.53 0.0
01 17:15 Calm 16.09 Fair CLR 31.6 19.6 49% 33 76.53 0.0
01 16:55 NE 9 16.09 Fair CLR 31.6 19.4 48% 33 76.56 0.0
01 16:35 NW 9 16.09 Fair CLR 31.7 19.5 48% 33 76.56 0.0
01 16:15 E 6 16.09 Fair CLR 31.8 19.5 48% 34 76.56 0.0
01 15:55 NW 6 16.09 Fair CLR 31.7 19 47% 33 76.58 0.0
01 15:35 Calm 16.09 Fair CLR 31.5 19.1 48% 33 76.61 0.0
01 15:15 N 7 16.09 Partly Cloudy SCT050 31.4 19 48% 33 76.61 0.0
01 14:55 N 7 16.09 Fair CLR 31.2 19 48% 33 76.63 0.0
01 14:35 N 9 16.09 Fair CLR 31.4 19.5 49% 33 76.63 0.0
01 14:15 N 11 16.09 Fair CLR 31 18.2 46% 32 76.66 0.0
01 13:55 N 11 16.09 Fair CLR 31 17.8 31 18 45% 32 76.66 0.0
01 13:35 N 13 16.09 Fair CLR 30.7 17.8 46% 31 76.66 0.0
01 13:15 N 11 16.09 Fair CLR 30.5 18.3 48% 31 76.68 0.0
01 12:55 N 9 16.09 Fair CLR 30.2 18.8 50% 31 76.71 0.0
01 12:35 SW 7 16.09 Fair CLR 29.8 20.1 56% 32 76.71 0.0
01 12:15 Calm 16.09 Fair CLR 28.9 19.9 58% 31 76.73 0.0
01 11:55 Calm 16.09 Fair CLR 29.4 20.1 57% 31 76.76 0.0
01 11:36 Calm 16.09 Fair CLR 28.6 20.5 62% 31 76.78 0.0
01 11:15 Calm 16.09 Fair CLR 27.3 19.5 62% 29 76.78 0.0
01 10:55 Calm 16.09 Fair CLR 26.6 19.8 66% 28 76.78 0.0
01 10:35 Calm 16.09 Fair CLR 25 19.6 72% 26 76.78 0.0
01 10:15 Calm 16.09 Fair CLR 23.7 19.6 78% 76.81 0.0
01 09:55 Calm 16.09 Fair CLR 22.1 19.9 87% 76.81 0.0
01 09:35 Calm 16.09 Fair CLR 21.1 19.7 92% 76.81 0.0
01 09:15 Calm 16.09 Fair CLR 20.3 19.6 96% 76.81 0.0
01 08:55 Calm 16.09 Fair CLR 19.7 19 96% 76.78 0.0
01 08:35 Calm 16.09 Fair CLR 19.1 18.4 96% 76.78 0.0
01 08:15 Calm 11.27 Partly Cloudy SCT003 18.4 17.7 96% 76.78 0.0
01 07:55 Calm 0.24 Fog OVC003 18 17.3 19 17.1 96% 76.78 0.0
01 07:35 Calm 0.24 Fog OVC003 17.6 17 96% 76.73 0.0
01 07:15 Calm 4.02 Fog/Mist BKN003 17.1 16.5 96% 76.71 0.0
01 06:55 Calm 8.05 Fog/Mist SCT003 17.2 16.5 96% 76.71 0.0
01 06:35 Calm 6.44 Fog/Mist SCT003 17.3 16.6 96% 76.71 0.0
01 06:15 Calm 3.22 Fog/Mist SCT003 17.6 16.9 96% 76.71 0.0
01 05:55 Calm 4.02 Fog/Mist SCT001 17.6 17 96% 76.68 0.0
01 05:35 Calm 1.21 Fog/Mist OVC001 17.9 17.2 96% 76.68 0.0
01 05:15 Calm 1.21 Fog/Mist OVC001 17.7 17 96% 76.68 0.0
01 04:55 Calm 1.21 Fog/Mist BKN003 17.7 17 96% 76.68 0.0
01 04:35 Calm 1.61 Fog/Mist OVC003 18 17.2 95% 76.68 0.0
01 04:15 Calm 8.05 Fog/Mist SCT003 18.1 17.4 96% 76.68 0.0
01 03:55 Calm 8.05 Fog/Mist CLR 18.1 17.4 96% 76.68 0.0
01 03:35 Calm 11.27 Fair CLR 18.2 17.5 96% 76.68 0.0
01 03:15 Calm 16.09 Fair CLR 18.7 18 96% 76.66 0.0
01 02:55 Calm 8.05 Fog/Mist CLR 18.6 17.9 96% 76.68 0.0
01 02:35 Calm 6.44 Fog/Mist CLR 18.7 18 96% 76.71 0.0
01 02:15 Calm 11.27 Fair CLR 18.7 18 96% 76.71 0.0
01 01:55 Calm 11.27 Fair CLR 19 18.3 23.4 19 96% 76.71 0.0
01 01:35 Calm 11.27 Fair CLR 19.1 18.3 95% 76.73 0.0
01 01:15 Calm 16.09 Fair CLR 19.4 18.6 95% 76.73 0.0
01 00:55 Calm 11.27 Fair CLR 19.2 18.5 96% 76.73 0.0
01 00:35 Calm 16.09 Fair CLR 19.6 18.9 96% 76.71 0.0
01 00:15 Calm 11.27 Partly Cloudy SCT003 19.5 18.8 96% 76.71 0.0
31 23:55 Calm 11.27 Fair CLR 19.7 19 96% 76.71 0.0
31 23:35 Calm 16.09 Fair CLR 20 19.1 95% 76.71 0.0
31 23:15 Calm 16.09 Fair CLR 20 19.2 95% 76.71 0.0
31 22:55 Calm 16.09 Fair CLR 20.2 19.3 95% 76.71 0.0
31 22:35 Calm 16.09 Fair CLR 20.5 19.4 93% 76.71 0.0
31 22:15 Calm 16.09 Fair CLR 20.8 19.6 93% 76.71 0.0
31 21:55 Calm 16.09 Fair CLR 21.1 19.8 92% 76.68 0.0
31 21:35 Calm 16.09 Fair CLR 21.1 19.7 92% 76.66 0.0
31 21:15 Calm 16.09 Fair CLR 21.5 20 91% 76.63 0.0
31 20:55 Calm 16.09 Fair CLR 22 20.4 91% 76.63 0.0
31 20:35 Calm 16.09 Fair CLR 22.5 20.7 90% 76.63 0.0
31 20:15 Calm 16.09 Fair CLR 22.9 20.8 88% 76.63 0.0
31 19:35 NE 7 16.09 Partly Cloudy SCT090 24.9 21 79% 26 76.61 0.0
31 19:15 Calm 16.09 Partly Cloudy SCT090 26 20.6 72% 27 76.63 0.0
31 18:55 E 6 16.09 Partly Cloudy SCT090 26.7 20.4 68% 28 76.63 0.0
31 18:35 NE 7 16.09 Mostly Cloudy BKN090 26.8 20.3 68% 28 76.63 0.0
31 18:15 E 6 16.09 Overcast OVC100 26.2 20.1 69% 28 76.63 0.0
31 17:55 NE 6 16.09 Overcast OVC100 26.5 20.4 69% 28 76.66 0.0
31 17:35 NE 11 16.09 Overcast OVC100 27.4 20.2 65% 29 76.66 0.0
31 17:15 E 11 16.09 Overcast BKN100 OVC120 26.5 19.9 67% 28 76.66 0.0
31 16:55 E 11 16.09 Mostly Cloudy SCT100 BKN120 25.9 20.6 73% 27 76.66 0.0
31 16:35 NE 9 16.09 Mostly Cloudy BKN120 24.5 20.2 77% 25 76.68 0.0
31 16:15 E 7 16.09 Mostly Cloudy SCT033 SCT043 BKN120 25.1 22.1 84% 26 76.68 0.0
31 15:55 SE 7 16.09 Rain SCT032 BKN046 OVC055 25.4 22.4 84% 27 76.68 0.0
31 15:36 NW 7 16.09 Light Rain BKN048 BKN060 OVC065 29.5 19.3 54% 31 76.68 0.0
31 15:15 W 11 16.09 Partly Cloudy SCT050 SCT110 31 19.7 51% 33 76.68 0.0
31 14:55 SW 11 16.09 Partly Cloudy SCT042 SCT048 31 20 52% 33 76.68 0.0
31 14:35 W 9 16.09 Partly Cloudy SCT042 SCT048 30.5 20.3 54% 33 76.71 0.0
31 14:15 S 7 16.09 Fair CLR 30.3 19 51% 32 76.71 0.0
31 13:55 W 6 16.09 Fair CLR 30.2 19.2 30.2 17.6 52% 32 76.71 0.0
31 13:35 SW 6 16.09 Fair CLR 30 19.9 55% 32 76.73 0.0
31 13:15 SE 6 16.09 Fair CLR 29.6 19.9 56% 31 76.76 0.0
31 12:55 SW 7 16.09 Fair CLR 29.2 20 58% 31 76.76 0.0
31 12:35 Calm 16.09 Fair CLR 29 19.6 57% 31 76.78 0.0
31 12:15 Calm 16.09 Fair CLR 28.1 19.4 59% 30 76.81 0.0
31 11:55 Calm 16.09 Fair CLR 27.9 19.5 60% 29 76.81 0.0
31 11:35 Calm 16.09 Fair CLR 27.2 19.8 64% 29 76.81 0.0
31 11:15 W 6 16.09 Fair CLR 26.5 19.6 66% 28 76.81 0.0
31 10:55 Calm 16.09 Fair CLR 25.7 19.5 69% 27 76.84 0.0
31 10:35 Calm 16.09 Fair CLR 24.7 19.7 74% 26 76.84 0.0
31 10:15 Calm 16.09 Fair CLR 23.5 19.1 76% 76.81 0.0
31 09:55 Calm 16.09 Fair CLR 22 19.1 84% 76.81 0.0
31 09:35 Calm 16.09 Fair CLR 21.1 19.4 90% 76.81 0.0
31 09:15 Calm 16.09 Fair CLR 20.2 19.3 95% 76.81 0.0
31 08:56 Calm 16.09 Fair CLR 19.6 18.9 96% 76.81 0.0
31 08:35 Calm 16.09 Fair CLR 18.5 17.7 95% 76.81 0.0
31 08:15 Calm 11.27 Fair CLR 18.1 17.4 96% 76.81 0.0
31 07:55 Calm 8.05 Fog/Mist SCT002 17.5 16.8 18.7 16.6 96% 76.81 0.0
31 07:35 Calm 0.80 Fog OVC002 17.1 16.5 96% 76.78 0.0
31 07:15 Calm 0.24 Fog OVC002 17.1 16.5 96% 76.78 0.0
31 06:55 Calm 4.83 Fog/Mist BKN002 16.9 16.1 95% 76.78 0.0
31 06:35 Calm 4.02 Fog/Mist SCT002 16.8 16.1 96% 76.76 0.0
31 06:15 Calm 6.44 Fog/Mist SCT002 17 16.2 95% 76.73 0.0
31 05:55 Calm 8.05 Fog/Mist BKN002 17 16.3 96% 76.73 0.0
31 05:35 Calm 11.27 Partly Cloudy SCT002 17.1 16.4 96% 76.73 0.0
31 05:15 Calm 2.82 Fog/Mist VV007 17.2 16.5 96% 76.71 0.0
31 04:55 Calm 8.05 Fog/Mist CLR 17.5 16.7 95% 76.71 0.0
31 04:35 Calm 8.05 Fog/Mist SCT090 17.5 16.7 95% 76.71 0.0
31 04:15 Calm 8.05 Fog/Mist SCT090 17.7 17 96% 76.71 0.0
31 03:55 Calm 8.05 Fog/Mist CLR 17.7 17 96% 76.71 0.0
Date Time (edt) Wind (kph) Vis. (km) Weather Sky Cond. Air Dwpt Max. Min. Relative Humidity Wind Chill (°C) Heat Index (°C) altimeter (cm) sea level (mb) 1 hr 3 hr 6 hr
6 hour
Temperature (ºC) Pressure Precipitation (cm)